sensor_id;sensor_type;location;lat;lon;timestamp;P1;durP1;ratioP1;P2;durP2;ratioP2
74457;SDS011;62896;51.032;3.712;2023-02-28T17:59:05;4.6;;;2.9;;
74457;SDS011;62896;51.032;3.712;2023-02-28T18:02:25;4.6;;;2.9;;
74457;SDS011;62896;51.032;3.712;2023-02-28T18:05:45;4.6;;;2.9;;
74457;SDS011;62896;51.032;3.712;2023-02-28T18:09:05;4.6;;;2.9;;
74457;SDS011;62896;51.032;3.712;2023-02-28T18:12:25;4.6;;;2.9;;
74457;SDS011;62896;51.032;3.712;2023-02-28T18:15:45;4.6;;;2.9;;
74457;SDS011;62896;51.032;3.712;2023-02-28T18:19:05;4.6;;;2.9;;
74457;SDS011;62896;51.032;3.712;2023-02-28T18:22:25;8.2;;;3.6;;
74457;SDS011;62896;51.032;3.712;2023-02-28T18:25:45;8.2;;;3.6;;
74457;SDS011;62896;51.032;3.712;2023-02-28T18:29:05;8.2;;;3.6;;
74457;SDS011;62896;51.032;3.712;2023-02-28T18:32:25;8.2;;;3.6;;
74457;SDS011;62896;51.032;3.712;2023-02-28T18:35:45;8.2;;;3.6;;
74457;SDS011;62896;51.032;3.712;2023-02-28T18:39:05;8.2;;;3.6;;
74457;SDS011;62896;51.032;3.712;2023-02-28T18:42:25;8.2;;;3.6;;
74457;SDS011;62896;51.032;3.712;2023-02-28T18:45:45;8.2;;;3.6;;
74457;SDS011;62896;51.032;3.712;2023-02-28T18:49:05;13.8;;;4.3;;
74457;SDS011;62896;51.032;3.712;2023-02-28T18:52:25;13.8;;;4.3;;
74457;SDS011;62896;51.032;3.712;2023-02-28T18:55:45;13.8;;;4.3;;
74457;SDS011;62896;51.032;3.712;2023-02-28T18:59:05;13.8;;;4.3;;
74457;SDS011;62896;51.032;3.712;2023-02-28T19:02:25;13.8;;;4.3;;
74457;SDS011;62896;51.032;3.712;2023-02-28T19:05:45;13.8;;;4.3;;
74457;SDS011;62896;51.032;3.712;2023-02-28T19:09:05;13.8;;;4.3;;
74457;SDS011;62896;51.032;3.712;2023-02-28T19:12:25;7.9;;;4.6;;
74457;SDS011;62896;51.032;3.712;2023-02-28T19:15:45;7.9;;;4.6;;
74457;SDS011;62896;51.032;3.712;2023-02-28T19:19:05;7.9;;;4.6;;
74457;SDS011;62896;51.032;3.712;2023-02-28T19:22:25;7.9;;;4.6;;
74457;SDS011;62896;51.032;3.712;2023-02-28T19:25:45;7.9;;;4.6;;
74457;SDS011;62896;51.032;3.712;2023-02-28T19:29:05;7.9;;;4.6;;
74457;SDS011;62896;51.032;3.712;2023-02-28T19:32:25;7.9;;;4.6;;
74457;SDS011;62896;51.032;3.712;2023-02-28T19:35:45;7.9;;;4.6;;
74457;SDS011;62896;51.032;3.712;2023-02-28T19:39:05;10.6;;;5.9;;
74457;SDS011;62896;51.032;3.712;2023-02-28T19:42:25;10.6;;;5.9;;
74457;SDS011;62896;51.032;3.712;2023-02-28T19:45:45;10.6;;;5.9;;
74457;SDS011;62896;51.032;3.712;2023-02-28T19:49:05;10.6;;;5.9;;
74457;SDS011;62896;51.032;3.712;2023-02-28T19:52:25;10.6;;;5.9;;
74457;SDS011;62896;51.032;3.712;2023-02-28T19:55:45;10.6;;;5.9;;
74457;SDS011;62896;51.032;3.712;2023-02-28T19:59:05;10.6;;;5.9;;
74457;SDS011;62896;51.032;3.712;2023-02-28T20:02:25;7.4;;;4.5;;
74457;SDS011;62896;51.032;3.712;2023-02-28T20:05:45;7.4;;;4.5;;
74457;SDS011;62896;51.032;3.712;2023-02-28T20:09:05;7.4;;;4.5;;
74457;SDS011;62896;51.032;3.712;2023-02-28T20:12:25;7.4;;;4.5;;
74457;SDS011;62896;51.032;3.712;2023-02-28T20:15:45;7.4;;;4.5;;
74457;SDS011;62896;51.032;3.712;2023-02-28T20:19:05;7.4;;;4.5;;
74457;SDS011;62896;51.032;3.712;2023-02-28T20:22:25;7.4;;;4.5;;
74457;SDS011;62896;51.032;3.712;2023-02-28T20:25:45;7.4;;;4.5;;
74457;SDS011;62896;51.032;3.712;2023-02-28T20:29:05;7.2;;;4.9;;
74457;SDS011;62896;51.032;3.712;2023-02-28T20:32:25;7.2;;;4.9;;
74457;SDS011;62896;51.032;3.712;2023-02-28T20:35:45;7.2;;;4.9;;
74457;SDS011;62896;51.032;3.712;2023-02-28T20:39:05;7.2;;;4.9;;
74457;SDS011;62896;51.032;3.712;2023-02-28T20:42:25;7.2;;;4.9;;
74457;SDS011;62896;51.032;3.712;2023-02-28T20:45:49;7.2;;;4.9;;
74457;SDS011;62896;51.032;3.712;2023-02-28T20:49:05;7.2;;;4.9;;
74457;SDS011;62896;51.032;3.712;2023-02-28T20:52:25;9.1;;;5;;
74457;SDS011;62896;51.032;3.712;2023-02-28T20:55:52;9.1;;;5;;
74457;SDS011;62896;51.032;3.712;2023-02-28T20:59:05;9.1;;;5;;
74457;SDS011;62896;51.032;3.712;2023-02-28T21:02:25;9.1;;;5;;
74457;SDS011;62896;51.032;3.712;2023-02-28T21:05:45;9.1;;;5;;
74457;SDS011;62896;51.032;3.712;2023-02-28T21:09:06;9.1;;;5;;
74457;SDS011;62896;51.032;3.712;2023-02-28T21:12:25;9.1;;;5;;
74457;SDS011;62896;51.032;3.712;2023-02-28T21:15:45;9.1;;;5;;
74457;SDS011;62896;51.032;3.712;2023-02-28T21:19:05;7.5;;;4.9;;
74457;SDS011;62896;51.032;3.712;2023-02-28T21:22:25;7.5;;;4.9;;
74457;SDS011;62896;51.032;3.712;2023-02-28T21:25:45;7.5;;;4.9;;
74457;SDS011;62896;51.032;3.712;2023-02-28T21:29:05;7.5;;;4.9;;
74457;SDS011;62896;51.032;3.712;2023-02-28T21:32:25;7.5;;;4.9;;
74457;SDS011;62896;51.032;3.712;2023-02-28T21:35:45;7.5;;;4.9;;
74457;SDS011;62896;51.032;3.712;2023-02-28T21:39:06;7.5;;;4.9;;
74457;SDS011;62896;51.032;3.712;2023-02-28T21:42:25;5.6;;;4.9;;
74457;SDS011;62896;51.032;3.712;2023-02-28T21:45:45;5.6;;;4.9;;
74457;SDS011;62896;51.032;3.712;2023-02-28T21:49:05;5.6;;;4.9;;
74457;SDS011;62896;51.032;3.712;2023-02-28T21:52:25;5.6;;;4.9;;
74457;SDS011;62896;51.032;3.712;2023-02-28T21:55:45;5.6;;;4.9;;
74457;SDS011;62896;51.032;3.712;2023-02-28T21:59:05;5.6;;;4.9;;
74457;SDS011;62896;51.032;3.712;2023-02-28T22:02:25;5.6;;;4.9;;
74457;SDS011;62896;51.032;3.712;2023-02-28T22:05:45;5.6;;;4.9;;
74457;SDS011;62896;51.032;3.712;2023-02-28T22:09:06;6.8;;;4.6;;
74457;SDS011;62896;51.032;3.712;2023-02-28T22:12:25;6.8;;;4.6;;
74457;SDS011;62896;51.032;3.712;2023-02-28T22:15:45;6.8;;;4.6;;
74457;SDS011;62896;51.032;3.712;2023-02-28T22:19:05;6.8;;;4.6;;
74457;SDS011;62896;51.032;3.712;2023-02-28T22:22:25;6.8;;;4.6;;
74457;SDS011;62896;51.032;3.712;2023-02-28T22:25:45;6.8;;;4.6;;
74457;SDS011;62896;51.032;3.712;2023-02-28T22:29:05;6.8;;;4.6;;
74457;SDS011;62896;51.032;3.712;2023-02-28T22:32:25;13.1;;;5.8;;
74457;SDS011;62896;51.032;3.712;2023-02-28T22:35:45;13.1;;;5.8;;
74457;SDS011;62896;51.032;3.712;2023-02-28T22:39:05;13.1;;;5.8;;
74457;SDS011;62896;51.032;3.712;2023-02-28T22:42:25;13.1;;;5.8;;
74457;SDS011;62896;51.032;3.712;2023-02-28T22:45:45;13.1;;;5.8;;
74457;SDS011;62896;51.032;3.712;2023-02-28T22:49:05;13.1;;;5.8;;
74457;SDS011;62896;51.032;3.712;2023-02-28T22:52:25;13.1;;;5.8;;
74457;SDS011;62896;51.032;3.712;2023-02-28T22:55:52;13.1;;;5.8;;
74457;SDS011;62896;51.032;3.712;2023-02-28T22:59:05;9.4;;;5.8;;
74457;SDS011;62896;51.032;3.712;2023-02-28T23:02:25;9.4;;;5.8;;
74457;SDS011;62896;51.032;3.712;2023-02-28T23:05:45;9.4;;;5.8;;
74457;SDS011;62896;51.032;3.712;2023-02-28T23:09:05;9.4;;;5.8;;
74457;SDS011;62896;51.032;3.712;2023-02-28T23:12:25;9.4;;;5.8;;
74457;SDS011;62896;51.032;3.712;2023-02-28T23:15:45;9.4;;;5.8;;
74457;SDS011;62896;51.032;3.712;2023-02-28T23:19:06;9.4;;;5.8;;
74457;SDS011;62896;51.032;3.712;2023-02-28T23:22:25;12.3;;;6.5;;
74457;SDS011;62896;51.032;3.712;2023-02-28T23:25:45;12.3;;;6.5;;
74457;SDS011;62896;51.032;3.712;2023-02-28T23:29:05;12.3;;;6.5;;
74457;SDS011;62896;51.032;3.712;2023-02-28T23:32:25;12.3;;;6.5;;
74457;SDS011;62896;51.032;3.712;2023-02-28T23:35:45;12.3;;;6.5;;
74457;SDS011;62896;51.032;3.712;2023-02-28T23:39:05;12.3;;;6.5;;
74457;SDS011;62896;51.032;3.712;2023-02-28T23:42:25;12.3;;;6.5;;
74457;SDS011;62896;51.032;3.712;2023-02-28T23:45:53;12.3;;;6.5;;
74457;SDS011;62896;51.032;3.712;2023-02-28T23:49:05;10.1;;;6.2;;
74457;SDS011;62896;51.032;3.712;2023-02-28T23:52:25;10.1;;;6.2;;
74457;SDS011;62896;51.032;3.712;2023-02-28T23:55:45;10.1;;;6.2;;
74457;SDS011;62896;51.032;3.712;2023-02-28T23:59:05;10.1;;;6.2;;
